createdAt,value
2023-04-26T00:00:51.761Z,28.47
2023-04-26T00:01:51.755Z,28.43
2023-04-26T00:02:51.870Z,28.42
2023-04-26T00:03:51.959Z,28.43
2023-04-26T00:04:51.920Z,28.41
2023-04-26T00:05:51.872Z,28.47
2023-04-26T00:06:51.732Z,28.46
2023-04-26T00:07:52.252Z,28.46
2023-04-26T00:08:51.969Z,28.46
2023-04-26T00:09:51.713Z,28.45
2023-04-26T00:10:51.715Z,28.42
2023-04-26T00:11:51.704Z,28.46
2023-04-26T00:12:51.677Z,28.43
2023-04-26T00:13:51.758Z,28.45
2023-04-26T00:14:51.660Z,28.49
2023-04-26T00:15:51.732Z,28.45
2023-04-26T00:16:51.842Z,28.46
2023-04-26T00:17:51.694Z,28.50
2023-04-26T00:18:51.837Z,28.45
2023-04-26T00:19:51.627Z,28.46
2023-04-26T00:20:51.634Z,28.45
2023-04-26T00:21:51.621Z,28.45
2023-04-26T00:22:52.256Z,28.47
2023-04-26T00:23:51.603Z,28.45
2023-04-26T00:24:51.598Z,28.47
2023-04-26T00:25:51.628Z,28.47
2023-04-26T00:26:51.607Z,28.44
2023-04-26T00:27:51.566Z,28.47
2023-04-26T00:28:51.852Z,28.46
2023-04-26T00:29:51.557Z,28.45
2023-04-26T00:30:51.553Z,28.46
2023-04-26T00:31:51.576Z,28.46
2023-04-26T00:32:51.638Z,28.45
2023-04-26T00:33:51.573Z,28.50
2023-04-26T00:34:51.568Z,28.45
2023-04-26T00:35:51.538Z,28.46
2023-04-26T00:36:51.522Z,28.46
2023-04-26T00:37:51.556Z,28.46
2023-04-26T00:38:51.883Z,28.45
2023-04-26T00:39:51.585Z,28.45
2023-04-26T00:40:51.597Z,28.43
2023-04-26T00:41:51.624Z,28.43
2023-04-26T00:42:51.656Z,28.46
2023-04-26T00:43:51.699Z,28.43
2023-04-26T00:44:51.676Z,28.45
2023-04-26T00:45:51.740Z,28.46
2023-04-26T00:46:52.282Z,28.43
2023-04-26T00:47:51.782Z,28.43
2023-04-26T00:48:52.012Z,28.46
2023-04-26T00:49:51.771Z,28.46
2023-04-26T00:50:51.787Z,28.46
2023-04-26T00:51:51.812Z,28.46
2023-04-26T00:52:51.826Z,28.49
2023-04-26T00:53:51.902Z,28.46
2023-04-26T00:54:51.863Z,28.40
2023-04-26T00:55:51.916Z,28.47
2023-04-26T00:56:51.923Z,28.46
2023-04-26T00:57:51.916Z,28.47
2023-04-26T00:58:52.266Z,28.46
2023-04-26T00:59:51.989Z,28.43
2023-04-26T01:00:52.148Z,28.42
2023-04-26T01:01:51.985Z,28.45
2023-04-26T01:02:52.171Z,28.45
2023-04-26T01:03:52.129Z,28.43
2023-04-26T01:04:52.048Z,28.45
2023-04-26T01:05:52.281Z,28.43
2023-04-26T01:06:52.080Z,28.46
2023-04-26T01:07:52.140Z,28.42
2023-04-26T01:08:52.411Z,28.43
2023-04-26T01:09:52.150Z,28.42
2023-04-26T01:10:52.168Z,28.43
2023-04-26T01:11:52.790Z,28.39
2023-04-26T01:12:52.230Z,28.41
2023-04-26T01:13:52.786Z,28.38
2023-04-26T01:14:52.277Z,28.45
2023-04-26T01:15:52.264Z,28.46
2023-04-26T01:16:52.381Z,28.43
2023-04-26T01:17:52.379Z,28.47
2023-04-26T01:18:52.712Z,28.46
2023-04-26T01:19:52.787Z,28.45
2023-04-26T01:20:52.351Z,28.43
2023-04-26T01:21:52.369Z,28.41
2023-04-26T01:22:52.392Z,28.39
2023-04-26T01:23:52.419Z,28.41
2023-04-26T01:24:52.418Z,28.38
2023-04-26T01:25:53.287Z,28.42
2023-04-26T01:26:52.455Z,28.45
2023-04-26T01:27:52.456Z,28.45
2023-04-26T01:28:52.835Z,28.42
2023-04-26T01:29:52.481Z,28.42
2023-04-26T01:30:52.551Z,28.41
2023-04-26T01:31:52.513Z,28.43
2023-04-26T01:32:52.574Z,28.39
2023-04-26T01:33:52.546Z,28.39
2023-04-26T01:34:52.557Z,28.39
2023-04-26T01:35:52.622Z,28.38
2023-04-26T01:36:53.289Z,28.38
2023-04-26T01:37:53.294Z,28.38
2023-04-26T01:38:53.080Z,28.43
2023-04-26T01:39:52.650Z,28.36
2023-04-26T01:40:52.675Z,28.43
2023-04-26T01:41:52.655Z,28.39
2023-04-26T01:42:52.795Z,28.36
2023-04-26T01:43:52.690Z,28.43
2023-04-26T01:44:52.705Z,28.39
2023-04-26T01:45:52.749Z,28.41
2023-04-26T01:46:52.750Z,28.38
2023-04-26T01:47:52.734Z,28.42
2023-04-26T01:48:53.013Z,28.41
2023-04-26T01:49:52.761Z,28.41
2023-04-26T01:50:53.296Z,28.41
2023-04-26T01:51:52.803Z,28.41
2023-04-26T01:52:52.806Z,28.43
2023-04-26T01:53:52.826Z,28.43
2023-04-26T01:54:52.837Z,28.39
2023-04-26T01:55:52.859Z,28.41
2023-04-26T01:56:52.871Z,28.40
2023-04-26T01:57:52.878Z,28.41
2023-04-26T01:58:53.284Z,28.36
2023-04-26T01:59:52.909Z,28.40
2023-04-26T02:00:54.185Z,28.38
2023-04-26T02:01:53.313Z,28.36
2023-04-26T02:02:53.087Z,28.38
2023-04-26T02:03:52.968Z,28.36
2023-04-26T02:04:53.007Z,28.39
2023-04-26T02:05:54.179Z,28.39
2023-04-26T02:06:53.100Z,28.39
2023-04-26T02:07:53.112Z,28.38
2023-04-26T02:08:53.447Z,28.34
2023-04-26T02:09:53.166Z,28.36
2023-04-26T02:10:53.175Z,28.42
2023-04-26T02:11:53.188Z,28.35
2023-04-26T02:12:53.204Z,28.39
2023-04-26T02:13:53.223Z,28.32
2023-04-26T02:14:53.248Z,28.36
2023-04-26T02:15:53.318Z,28.36
2023-04-26T02:16:53.290Z,28.38
2023-04-26T02:17:53.367Z,28.38
2023-04-26T02:18:53.846Z,28.32
2023-04-26T02:19:53.342Z,28.38
2023-04-26T02:20:53.355Z,28.36
2023-04-26T02:21:53.368Z,28.38
2023-04-26T02:22:53.380Z,28.35
2023-04-26T02:23:53.403Z,28.35
2023-04-26T02:24:53.427Z,28.32
2023-04-26T02:25:53.437Z,28.34
2023-04-26T02:26:53.442Z,28.35
2023-04-26T02:27:53.444Z,28.34
2023-04-26T02:28:53.562Z,28.34
2023-04-26T02:29:53.459Z,28.33
2023-04-26T02:30:53.462Z,28.34
2023-04-26T02:31:53.489Z,28.36
2023-04-26T02:32:53.486Z,28.35
2023-04-26T02:33:53.481Z,28.33
2023-04-26T02:34:53.501Z,28.36
2023-04-26T02:35:53.486Z,28.31
2023-04-26T02:36:53.505Z,28.32
2023-04-26T02:37:53.509Z,28.35
2023-04-26T02:38:53.802Z,28.34
2023-04-26T02:39:53.532Z,28.36
2023-04-26T02:40:53.552Z,28.32
2023-04-26T02:41:53.550Z,28.32
2023-04-26T02:42:53.549Z,28.35
2023-04-26T02:43:53.559Z,28.36
2023-04-26T02:44:53.576Z,28.31
2023-04-26T02:45:53.574Z,28.30
2023-04-26T02:46:53.630Z,28.34
2023-04-26T02:47:53.694Z,28.33
2023-04-26T02:48:53.912Z,28.31
2023-04-26T02:49:53.618Z,28.37
2023-04-26T02:50:53.641Z,28.31
2023-04-26T02:51:53.613Z,28.31
2023-04-26T02:52:53.624Z,28.33
2023-04-26T02:53:53.656Z,28.33
2023-04-26T02:54:53.655Z,28.28
2023-04-26T02:55:53.677Z,28.32
2023-04-26T02:56:53.672Z,28.30
2023-04-26T02:57:53.686Z,28.29
2023-04-26T02:58:53.963Z,28.31
2023-04-26T02:59:53.723Z,28.35
2023-04-26T03:00:53.823Z,28.28
2023-04-26T03:01:53.810Z,28.29
2023-04-26T03:02:53.965Z,28.31
2023-04-26T03:03:53.928Z,28.29
2023-04-26T03:04:53.787Z,28.30
2023-04-26T03:05:53.809Z,28.29
2023-04-26T03:06:53.854Z,28.27
2023-04-26T03:07:53.840Z,28.30
2023-04-26T03:08:54.124Z,28.26
2023-04-26T03:09:53.847Z,28.30
2023-04-26T03:10:53.852Z,28.24
2023-04-26T03:11:53.854Z,28.27
2023-04-26T03:12:53.869Z,28.28
2023-04-26T03:13:53.877Z,28.26
2023-04-26T03:14:53.878Z,28.29
2023-04-26T03:15:53.903Z,28.31
2023-04-26T03:16:54.947Z,28.29
2023-04-26T03:17:53.929Z,28.29
2023-04-26T03:18:54.152Z,28.33
2023-04-26T03:19:54.345Z,28.23
2023-04-26T03:20:53.923Z,28.29
2023-04-26T03:21:56.870Z,28.27
2023-04-26T03:22:54.852Z,28.26
2023-04-26T03:23:53.917Z,28.26
2023-04-26T03:24:53.902Z,28.29
2023-04-26T03:25:53.902Z,28.21
2023-04-26T03:26:53.884Z,28.28
2023-04-26T03:27:54.598Z,28.23
2023-04-26T03:28:54.137Z,28.30
2023-04-26T03:29:53.874Z,28.27
2023-04-26T03:30:53.865Z,28.29
2023-04-26T03:31:53.881Z,28.26
2023-04-26T03:32:53.880Z,28.26
2023-04-26T03:33:53.848Z,28.26
2023-04-26T03:34:54.376Z,28.30
2023-04-26T03:35:53.827Z,28.29
2023-04-26T03:36:53.819Z,28.26
2023-04-26T03:37:55.321Z,28.23
2023-04-26T03:38:53.978Z,28.27
2023-04-26T03:39:53.826Z,28.26
2023-04-26T03:40:53.789Z,28.27
2023-04-26T03:41:53.790Z,28.26
2023-04-26T03:42:53.774Z,28.24
2023-04-26T03:43:53.765Z,28.26
2023-04-26T03:44:53.769Z,28.23
2023-04-26T03:45:53.796Z,28.24
2023-04-26T03:46:53.750Z,28.26
2023-04-26T03:47:54.419Z,28.21
2023-04-26T03:48:54.033Z,28.23
2023-04-26T03:49:53.737Z,28.24
2023-04-26T03:50:53.726Z,28.26
2023-04-26T03:51:53.716Z,28.27
2023-04-26T03:52:53.701Z,28.26
2023-04-26T03:53:53.720Z,28.19
2023-04-26T03:54:53.760Z,28.23
2023-04-26T03:55:53.681Z,28.20
2023-04-26T03:56:53.699Z,28.19
2023-04-26T03:57:54.352Z,28.24
2023-04-26T03:58:53.946Z,28.20
2023-04-26T03:59:53.652Z,28.23
2023-04-26T04:00:53.649Z,28.22
2023-04-26T04:01:53.642Z,28.23
2023-04-26T04:02:53.762Z,28.20
2023-04-26T04:03:53.899Z,28.23
2023-04-26T04:04:53.915Z,28.23
2023-04-26T04:05:53.610Z,28.20
2023-04-26T04:06:53.604Z,28.23
2023-04-26T04:07:53.614Z,28.23
2023-04-26T04:08:53.843Z,28.20
2023-04-26T04:09:53.646Z,28.20
2023-04-26T04:10:53.577Z,28.24
2023-04-26T04:11:54.326Z,28.23
2023-04-26T04:12:53.560Z,28.23
2023-04-26T04:13:53.556Z,28.21
2023-04-26T04:14:53.553Z,28.20
2023-04-26T04:15:53.580Z,28.24
2023-04-26T04:16:53.531Z,28.23
2023-04-26T04:17:53.621Z,28.19
2023-04-26T04:18:53.889Z,28.22
2023-04-26T04:19:53.865Z,28.23
2023-04-26T04:20:54.380Z,28.16
2023-04-26T04:21:53.503Z,28.19
2023-04-26T04:22:53.496Z,28.22
2023-04-26T04:23:53.505Z,28.20
2023-04-26T04:24:53.484Z,28.22
2023-04-26T04:25:54.388Z,28.20
2023-04-26T04:26:53.473Z,28.20
2023-04-26T04:27:53.461Z,28.19
2023-04-26T04:28:53.744Z,28.20
2023-04-26T04:29:53.477Z,28.22
2023-04-26T04:30:53.460Z,28.16
2023-04-26T04:31:53.434Z,28.18
2023-04-26T04:32:53.454Z,28.24
2023-04-26T04:33:53.420Z,28.16
2023-04-26T04:34:53.445Z,28.18
2023-04-26T04:35:53.404Z,28.19
2023-04-26T04:36:53.398Z,28.16
2023-04-26T04:37:53.400Z,28.19
2023-04-26T04:38:53.674Z,28.19
2023-04-26T04:39:53.413Z,28.17
2023-04-26T04:40:53.384Z,28.20
2023-04-26T04:41:53.412Z,28.22
2023-04-26T04:42:56.388Z,28.18
2023-04-26T04:43:53.392Z,28.19
2023-04-26T04:44:53.380Z,28.17
2023-04-26T04:45:55.880Z,28.16
2023-04-26T04:46:53.415Z,28.18
2023-04-26T04:47:53.406Z,28.18
2023-04-26T04:48:53.819Z,28.12
2023-04-26T04:49:53.348Z,28.12
2023-04-26T04:50:53.374Z,28.14
2023-04-26T04:51:53.331Z,28.15
2023-04-26T04:52:53.342Z,28.15
2023-04-26T04:53:53.324Z,28.18
2023-04-26T04:54:53.380Z,28.12
2023-04-26T04:55:53.337Z,28.18
2023-04-26T04:56:53.879Z,28.18
2023-04-26T04:57:53.899Z,28.11
2023-04-26T04:58:53.641Z,28.12
2023-04-26T04:59:53.368Z,28.19
2023-04-26T05:00:53.277Z,28.15
2023-04-26T05:01:53.321Z,28.12
2023-04-26T05:02:53.442Z,28.14
2023-04-26T05:03:53.560Z,28.12
2023-04-26T05:04:53.331Z,28.14
2023-04-26T05:05:53.246Z,28.14
2023-04-26T05:06:53.248Z,28.09
2023-04-26T05:07:53.243Z,28.12
2023-04-26T05:08:53.218Z,28.11
2023-04-26T05:09:53.242Z,28.17
2023-04-26T05:10:53.209Z,28.11
2023-04-26T05:11:53.209Z,28.12
2023-04-26T05:12:53.204Z,28.14
2023-04-26T05:13:53.280Z,28.12
2023-04-26T05:14:59.665Z,28.11
2023-04-26T05:15:53.185Z,28.11
2023-04-26T05:16:53.228Z,28.14
2023-04-26T05:17:53.206Z,28.11
2023-04-26T05:18:53.164Z,28.12
2023-04-26T05:19:53.177Z,28.10
2023-04-26T05:20:53.146Z,28.07
2023-04-26T05:21:53.162Z,28.14
2023-04-26T05:22:53.197Z,28.28
2023-04-26T05:23:53.410Z,28.27
2023-04-26T05:24:53.137Z,28.31
2023-04-26T05:25:53.153Z,28.29
2023-04-26T05:26:53.126Z,28.34
2023-04-26T05:27:53.091Z,28.45
2023-04-26T05:28:53.098Z,28.39
2023-04-26T05:29:53.115Z,28.46
2023-04-26T05:30:53.074Z,28.50
2023-04-26T05:31:53.096Z,28.53
2023-04-26T05:32:53.083Z,28.52
2023-04-26T05:33:53.339Z,28.62
2023-04-26T05:34:53.044Z,28.67
2023-04-26T05:35:53.424Z,28.67
2023-04-26T05:36:53.039Z,28.70
2023-04-26T05:37:53.033Z,28.76
2023-04-26T05:38:53.022Z,28.67
2023-04-26T05:39:53.013Z,28.78
2023-04-26T05:40:53.011Z,28.72
2023-04-26T05:41:53.005Z,28.78
2023-04-26T05:42:53.008Z,28.82
2023-04-26T05:43:53.346Z,28.86
2023-04-26T05:44:53.134Z,28.83
2023-04-26T05:45:53.603Z,28.90
2023-04-26T05:46:53.250Z,28.88
2023-04-26T05:47:53.357Z,28.88
2023-04-26T05:48:53.354Z,28.97
2023-04-26T05:49:53.456Z,29.00
2023-04-26T05:50:53.461Z,29.00
2023-04-26T05:51:53.573Z,29.00
2023-04-26T05:52:53.602Z,29.15
2023-04-26T05:53:54.185Z,29.14
2023-04-26T05:54:56.881Z,29.24
2023-04-26T05:55:53.930Z,29.28
2023-04-26T05:56:58.954Z,29.38
2023-04-26T05:57:53.717Z,29.31
2023-04-26T05:58:53.936Z,29.41
2023-04-26T05:59:53.668Z,29.37
2023-04-26T06:00:53.614Z,29.38
2023-04-26T06:01:53.800Z,29.30
2023-04-26T06:02:54.005Z,29.26
2023-04-26T06:03:55.966Z,29.21
2023-04-26T06:04:54.150Z,29.26
2023-04-26T06:05:54.254Z,29.23
2023-04-26T06:06:54.840Z,29.22
2023-04-26T06:07:53.935Z,29.21
2023-04-26T06:08:53.908Z,29.21
2023-04-26T06:09:54.001Z,29.19
2023-04-26T06:10:54.439Z,29.19
2023-04-26T06:11:54.068Z,29.20
2023-04-26T06:12:54.118Z,29.21
2023-04-26T06:13:54.406Z,29.21
2023-04-26T06:14:54.465Z,29.16
2023-04-26T06:15:54.297Z,29.15
2023-04-26T06:16:54.364Z,29.17
2023-04-26T06:17:54.463Z,29.17
2023-04-26T06:18:54.437Z,29.12
2023-04-26T06:19:54.939Z,29.13
2023-04-26T06:20:54.537Z,29.17
2023-04-26T06:21:54.597Z,29.12
2023-04-26T06:22:54.661Z,29.15
2023-04-26T06:23:54.861Z,29.13
2023-04-26T06:24:54.964Z,29.13
2023-04-26T06:25:54.943Z,29.10
2023-04-26T06:26:54.853Z,29.12
2023-04-26T06:27:54.915Z,29.10
2023-04-26T06:28:54.978Z,29.12
2023-04-26T06:29:55.019Z,29.06
2023-04-26T06:30:55.641Z,29.09
2023-04-26T06:31:55.130Z,29.05
2023-04-26T06:32:55.278Z,29.02
2023-04-26T06:33:55.523Z,29.01
2023-04-26T06:34:55.289Z,29.06
2023-04-26T06:35:55.457Z,29.05
2023-04-26T06:36:55.480Z,29.01
2023-04-26T06:37:55.442Z,29.02
2023-04-26T06:38:55.500Z,29.01
2023-04-26T06:39:55.552Z,28.99
2023-04-26T06:40:55.604Z,28.96
2023-04-26T06:41:55.946Z,28.95
2023-04-26T06:42:55.712Z,28.98
2023-04-26T06:43:55.777Z,28.96
2023-04-26T06:44:55.814Z,28.97
2023-04-26T06:45:55.993Z,28.94
2023-04-26T06:46:55.903Z,28.91
2023-04-26T06:47:55.991Z,28.91
2023-04-26T06:48:56.001Z,28.94
2023-04-26T06:49:56.727Z,28.86
2023-04-26T06:51:03.866Z,28.87
2023-04-26T06:51:56.104Z,28.87
2023-04-26T06:52:56.068Z,28.89
2023-04-26T06:53:56.071Z,28.86
2023-04-26T06:54:57.715Z,28.87
2023-04-26T06:56:11.677Z,28.90
2023-04-26T06:56:56.090Z,28.87
2023-04-26T06:57:56.124Z,28.80
2023-04-26T06:58:56.030Z,28.83
2023-04-26T06:59:56.034Z,28.86
2023-04-26T07:00:56.482Z,28.82
2023-04-26T07:01:56.099Z,28.87
2023-04-26T07:02:56.210Z,28.82
2023-04-26T07:03:56.503Z,28.87
2023-04-26T07:04:56.324Z,28.80
2023-04-26T07:05:56.065Z,28.80
2023-04-26T07:06:55.983Z,28.79
2023-04-26T07:07:56.471Z,28.74
2023-04-26T07:08:56.050Z,28.78
2023-04-26T07:09:56.321Z,28.74
2023-04-26T07:10:55.950Z,28.74
2023-04-26T07:12:55.998Z,28.72
2023-04-26T07:13:55.939Z,28.69
2023-04-26T07:14:55.908Z,28.71
2023-04-26T07:15:55.957Z,28.68
2023-04-26T07:16:55.962Z,28.71
2023-04-26T07:17:56.527Z,28.68
2023-04-26T07:18:56.056Z,28.72
2023-04-26T07:19:56.367Z,28.67
2023-04-26T07:20:56.155Z,28.67
2023-04-26T07:21:56.993Z,28.67
2023-04-26T07:22:56.471Z,28.67
2023-04-26T07:23:56.311Z,28.68
2023-04-26T07:24:56.374Z,28.65
2023-04-26T07:25:57.788Z,28.61
2023-04-26T07:26:56.867Z,28.72
2023-04-26T07:27:57.468Z,28.66
2023-04-26T07:28:56.568Z,28.66
2023-04-26T07:29:57.020Z,28.63
2023-04-26T07:30:56.854Z,28.62
2023-04-26T07:31:56.680Z,28.59
2023-04-26T07:32:57.145Z,28.62
2023-04-26T07:33:57.411Z,28.62
2023-04-26T07:34:56.854Z,28.62
2023-04-26T07:35:56.866Z,28.78
2023-04-26T07:36:56.975Z,28.85
2023-04-26T07:37:57.041Z,29.02
2023-04-26T07:38:57.487Z,29.08
2023-04-26T07:39:57.019Z,29.08
2023-04-26T07:40:57.512Z,29.26
2023-04-26T07:41:57.054Z,29.29
2023-04-26T07:42:57.091Z,29.43
2023-04-26T07:43:57.087Z,29.42
2023-04-26T07:44:57.101Z,29.57
2023-04-26T07:45:57.526Z,29.59
2023-04-26T07:46:57.103Z,29.73
2023-04-26T07:47:57.190Z,29.96
2023-04-26T07:48:57.136Z,29.88
2023-04-26T07:49:57.123Z,30.01
2023-04-26T07:50:57.496Z,30.15
2023-04-26T07:51:57.124Z,30.15
2023-04-26T07:52:57.161Z,30.19
2023-04-26T07:53:57.187Z,30.30
2023-04-26T07:54:57.486Z,30.56
2023-04-26T07:55:57.487Z,30.61
2023-04-26T07:56:57.181Z,30.64
2023-04-26T07:57:57.172Z,30.64
2023-04-26T07:58:57.222Z,30.67
2023-04-26T07:59:57.731Z,30.13
2023-04-26T08:00:57.497Z,29.88
2023-04-26T08:01:57.584Z,29.74
2023-04-26T08:02:57.600Z,29.67
2023-04-26T08:03:57.988Z,29.48
2023-04-26T08:04:57.529Z,29.28
2023-04-26T08:05:57.634Z,29.43
2023-04-26T08:06:57.298Z,29.27
2023-04-26T08:07:57.353Z,29.36
2023-04-26T08:08:57.386Z,29.32
2023-04-26T08:09:58.487Z,29.37
2023-04-26T08:10:57.493Z,29.07
2023-04-26T08:11:58.161Z,28.98
2023-04-26T08:12:57.554Z,28.91
2023-04-26T08:13:57.597Z,28.82
2023-04-26T08:14:57.626Z,28.85
2023-04-26T08:15:58.003Z,28.84
2023-04-26T08:16:57.790Z,28.80
2023-04-26T08:17:57.824Z,28.85
2023-04-26T08:18:57.809Z,28.83
2023-04-26T08:19:57.843Z,28.82
2023-04-26T08:20:57.996Z,29.00
2023-04-26T08:21:57.950Z,28.99
2023-04-26T08:22:57.984Z,29.10
2023-04-26T08:23:58.038Z,28.81
2023-04-26T08:24:58.080Z,28.64
2023-04-26T08:25:58.918Z,28.71
2023-04-26T08:26:58.177Z,28.60
2023-04-26T08:27:58.213Z,28.57
2023-04-26T08:28:58.261Z,28.54
2023-04-26T08:29:58.322Z,28.50
2023-04-26T08:30:58.447Z,28.44
2023-04-26T08:31:58.410Z,28.50
2023-04-26T08:32:58.541Z,28.53
2023-04-26T08:33:58.509Z,28.70
2023-04-26T08:34:58.576Z,28.87
2023-04-26T08:35:59.001Z,28.91
2023-04-26T08:36:58.667Z,28.91
2023-04-26T08:37:58.714Z,28.72
2023-04-26T08:38:58.773Z,28.61
2023-04-26T08:39:58.815Z,28.50
2023-04-26T08:40:59.195Z,28.54
2023-04-26T08:41:59.068Z,28.46
2023-04-26T08:42:59.146Z,28.30
2023-04-26T08:43:59.011Z,28.50
2023-04-26T08:44:59.066Z,28.06
2023-04-26T08:45:59.689Z,28.22
2023-04-26T08:46:59.075Z,28.15
2023-04-26T08:48:01.032Z,28.34
2023-04-26T08:48:59.087Z,28.52
2023-04-26T08:49:59.077Z,28.58
2023-04-26T08:50:59.071Z,28.68
2023-04-26T08:52:00.091Z,28.80
2023-04-26T08:52:59.051Z,28.94
2023-04-26T08:53:59.772Z,28.97
2023-04-26T08:54:59.046Z,29.07
2023-04-26T08:55:59.509Z,29.20
2023-04-26T08:56:59.048Z,29.21
2023-04-26T08:57:59.061Z,29.30
2023-04-26T08:58:59.021Z,29.38
2023-04-26T08:59:59.016Z,29.47
2023-04-26T09:00:59.525Z,29.52
2023-04-26T09:01:59.135Z,29.61
2023-04-26T09:02:59.175Z,29.70
2023-04-26T09:03:59.641Z,29.79
2023-04-26T09:04:59.264Z,30.00
2023-04-26T09:05:59.344Z,30.09
2023-04-26T09:06:59.147Z,30.18
2023-04-26T09:07:59.124Z,30.28
2023-04-26T09:08:59.132Z,30.32
2023-04-26T09:09:59.128Z,30.38
2023-04-26T09:10:59.516Z,30.48
2023-04-26T09:11:59.133Z,30.46
2023-04-26T09:12:59.157Z,30.51
2023-04-26T09:13:59.278Z,30.53
2023-04-26T09:14:59.186Z,30.52
2023-04-26T09:15:59.289Z,30.81
2023-04-26T09:17:00.061Z,30.80
2023-04-26T09:17:59.394Z,31.01
2023-04-26T09:18:59.422Z,31.01
2023-04-26T09:19:59.483Z,31.19
2023-04-26T09:21:00.027Z,31.28
2023-04-26T09:21:59.586Z,31.43
2023-04-26T09:22:59.652Z,31.52
2023-04-26T09:24:00.051Z,31.53
2023-04-26T09:24:59.743Z,31.66
2023-04-26T09:25:59.814Z,31.81
2023-04-26T09:26:59.871Z,31.81
2023-04-26T09:27:59.894Z,28.88
2023-04-26T09:29:00.033Z,28.74
2023-04-26T09:29:59.971Z,28.88
2023-04-26T09:31:00.146Z,28.32
2023-04-26T09:32:01.022Z,27.41
2023-04-26T09:33:00.168Z,27.44
2023-04-26T09:34:00.151Z,27.73
2023-04-26T09:35:00.130Z,28.16
2023-04-26T09:36:00.523Z,28.40
2023-04-26T09:37:00.164Z,28.74
2023-04-26T09:38:02.972Z,28.74
2023-04-26T09:39:00.197Z,28.63
2023-04-26T09:40:00.194Z,28.67
2023-04-26T09:41:00.553Z,28.58
2023-04-26T09:42:00.172Z,28.71
2023-04-26T09:43:00.404Z,28.67
2023-04-26T09:44:00.160Z,28.73
2023-04-26T09:45:00.165Z,28.74
2023-04-26T09:46:00.603Z,28.75
2023-04-26T09:47:00.353Z,28.53
2023-04-26T09:48:00.259Z,28.25
2023-04-26T09:49:00.157Z,28.10
2023-04-26T09:50:00.545Z,28.02
2023-04-26T09:51:00.529Z,28.13
2023-04-26T09:52:00.156Z,28.18
2023-04-26T09:53:00.136Z,28.02
2023-04-26T09:54:00.129Z,28.28
2023-04-26T09:55:00.148Z,28.14
2023-04-26T09:56:00.557Z,27.99
2023-04-26T09:57:00.105Z,27.96
2023-04-26T09:58:01.075Z,27.77
2023-04-26T09:59:00.105Z,27.47
2023-04-26T10:00:00.543Z,27.28
2023-04-26T10:01:00.617Z,27.50
2023-04-26T10:02:01.154Z,27.45
2023-04-26T10:03:00.428Z,27.35
2023-04-26T10:04:00.471Z,27.51
2023-04-26T10:05:00.624Z,27.59
2023-04-26T10:06:00.540Z,27.34
2023-04-26T10:07:00.453Z,27.34
2023-04-26T10:08:00.516Z,27.36
2023-04-26T10:09:00.534Z,27.27
2023-04-26T10:10:00.578Z,27.17
2023-04-26T10:11:01.049Z,27.17
2023-04-26T10:12:00.677Z,27.08
2023-04-26T10:13:00.708Z,27.17
2023-04-26T10:14:00.830Z,27.00
2023-04-26T10:15:00.792Z,26.95
2023-04-26T10:16:01.205Z,26.89
2023-04-26T10:17:00.958Z,27.01
2023-04-26T10:18:01.184Z,26.93
2023-04-26T10:19:00.958Z,27.00
2023-04-26T10:20:00.991Z,27.08
2023-04-26T10:21:01.029Z,27.04
2023-04-26T10:22:01.069Z,26.88
2023-04-26T10:23:01.599Z,26.74
2023-04-26T10:24:01.152Z,26.66
2023-04-26T10:25:01.181Z,26.67
2023-04-26T10:26:01.560Z,26.57
2023-04-26T10:27:01.262Z,26.76
2023-04-26T10:28:01.314Z,26.72
2023-04-26T10:29:02.900Z,26.87
2023-04-26T10:30:01.754Z,26.91
2023-04-26T10:31:01.931Z,26.92
2023-04-26T10:32:02.088Z,26.76
2023-04-26T10:33:01.775Z,26.84
2023-04-26T10:34:01.915Z,26.77
2023-04-26T10:35:01.671Z,26.88
2023-04-26T10:36:01.561Z,27.04
2023-04-26T10:37:01.762Z,26.95
2023-04-26T10:38:01.546Z,26.99
2023-04-26T10:39:01.664Z,27.04
2023-04-26T10:40:01.791Z,26.79
2023-04-26T10:41:01.670Z,26.70
2023-04-26T10:42:01.398Z,26.74
2023-04-26T10:43:01.975Z,26.57
2023-04-26T10:44:01.704Z,26.72
2023-04-26T10:45:01.682Z,26.70
2023-04-26T10:46:01.720Z,26.86
2023-04-26T10:47:02.697Z,26.81
2023-04-26T10:48:01.600Z,26.57
2023-04-26T10:49:01.744Z,26.67
2023-04-26T10:50:02.994Z,26.33
2023-04-26T10:51:01.680Z,26.44
2023-04-26T10:52:01.261Z,26.44
2023-04-26T10:53:01.264Z,26.60
2023-04-26T10:54:01.263Z,26.66
2023-04-26T10:55:01.240Z,26.63
2023-04-26T10:56:01.567Z,26.62
2023-04-26T10:57:01.236Z,26.49
2023-04-26T10:58:01.561Z,26.50
2023-04-26T10:59:01.220Z,26.54
2023-04-26T11:00:01.208Z,26.48
2023-04-26T11:01:01.261Z,26.52
2023-04-26T11:02:01.194Z,26.33
2023-04-26T11:03:01.343Z,24.25
2023-04-26T11:04:01.917Z,24.22
2023-04-26T11:05:01.206Z,25.46
2023-04-26T11:06:01.779Z,25.36
2023-04-26T11:07:01.159Z,26.83
2023-04-26T11:08:01.165Z,26.88
2023-04-26T11:09:01.577Z,27.04
2023-04-26T11:10:01.208Z,27.17
2023-04-26T11:11:01.591Z,27.30
2023-04-26T11:12:01.122Z,27.36
2023-04-26T11:13:01.110Z,27.41
2023-04-26T11:14:01.125Z,27.48
2023-04-26T11:15:01.162Z,27.41
2023-04-26T11:16:01.903Z,27.42
2023-04-26T11:17:01.652Z,27.38
2023-04-26T11:18:01.199Z,27.28
2023-04-26T11:19:01.149Z,27.22
2023-04-26T11:20:01.141Z,27.31
2023-04-26T11:21:01.207Z,27.18
2023-04-26T11:22:01.283Z,27.19
2023-04-26T11:23:01.335Z,26.98
2023-04-26T11:24:01.332Z,26.89
2023-04-26T11:25:01.351Z,26.82
2023-04-26T11:26:01.345Z,26.88
2023-04-26T11:27:01.338Z,26.73
2023-04-26T11:28:01.382Z,26.78
2023-04-26T11:29:01.492Z,26.79
2023-04-26T11:30:01.519Z,26.77
2023-04-26T11:31:01.632Z,26.74
2023-04-26T11:32:01.850Z,26.69
2023-04-26T11:33:01.733Z,26.73
2023-04-26T11:34:01.722Z,26.73
2023-04-26T11:35:01.775Z,26.75
2023-04-26T11:36:02.092Z,26.71
2023-04-26T11:37:01.861Z,26.76
2023-04-26T11:38:01.924Z,26.76
2023-04-26T11:39:02.967Z,26.77
2023-04-26T11:40:02.001Z,26.79
2023-04-26T11:41:02.023Z,26.84
2023-04-26T11:42:02.202Z,26.86
2023-04-26T11:43:02.084Z,26.81
2023-04-26T11:44:02.164Z,26.88
2023-04-26T11:45:02.145Z,26.87
2023-04-26T11:46:02.602Z,26.90
2023-04-26T11:47:03.241Z,26.90
2023-04-26T11:48:02.229Z,27.00
2023-04-26T11:49:02.207Z,26.97
2023-04-26T11:50:02.230Z,26.99
2023-04-26T11:51:02.620Z,27.06
2023-04-26T11:52:02.264Z,27.05
2023-04-26T11:53:02.278Z,27.06
2023-04-26T11:54:02.317Z,27.12
2023-04-26T11:55:02.321Z,27.14
2023-04-26T11:56:02.325Z,27.15
2023-04-26T11:57:02.333Z,27.21
2023-04-26T11:58:02.326Z,27.25
2023-04-26T11:59:02.338Z,27.33
2023-04-26T12:00:02.621Z,27.36
2023-04-26T12:01:02.346Z,27.36
2023-04-26T12:02:02.717Z,27.39
2023-04-26T12:03:02.578Z,27.45
2023-04-26T12:04:02.767Z,27.45
2023-04-26T12:05:02.472Z,27.47
2023-04-26T12:06:02.433Z,27.50
2023-04-26T12:07:02.351Z,27.55
2023-04-26T12:08:02.355Z,26.56
2023-04-26T12:09:02.403Z,25.81
2023-04-26T12:10:02.446Z,25.48
2023-04-26T12:11:02.534Z,25.27
2023-04-26T12:12:02.534Z,25.36
2023-04-26T12:13:02.527Z,25.30
2023-04-26T12:14:02.533Z,25.26
2023-04-26T12:15:02.572Z,24.91
2023-04-26T12:16:05.338Z,24.97
2023-04-26T12:17:02.647Z,25.42
2023-04-26T12:18:03.141Z,25.43
2023-04-26T12:19:02.591Z,25.44
2023-04-26T12:20:02.749Z,25.46
2023-04-26T12:21:02.582Z,25.92
2023-04-26T12:22:02.572Z,26.16
2023-04-26T12:23:02.600Z,26.46
2023-04-26T12:24:02.564Z,26.61
2023-04-26T12:25:02.551Z,26.90
2023-04-26T12:26:02.758Z,27.04
2023-04-26T12:27:02.839Z,27.17
2023-04-26T12:28:02.595Z,27.23
2023-04-26T12:29:02.519Z,27.30
2023-04-26T12:30:02.532Z,27.42
2023-04-26T12:31:02.556Z,27.50
2023-04-26T12:32:02.787Z,27.63
2023-04-26T12:33:15.549Z,27.68
2023-04-26T12:34:02.495Z,27.83
2023-04-26T12:35:02.491Z,27.89
2023-04-26T12:36:02.493Z,27.95
2023-04-26T12:37:02.472Z,27.99
2023-04-26T12:38:02.467Z,28.04
2023-04-26T12:39:02.457Z,28.07
2023-04-26T12:40:02.447Z,28.08
2023-04-26T12:41:02.439Z,28.13
2023-04-26T12:42:02.479Z,28.23
2023-04-26T12:43:02.432Z,28.31
2023-04-26T12:44:02.422Z,28.37
2023-04-26T12:45:02.414Z,28.38
2023-04-26T12:46:02.479Z,28.43
2023-04-26T12:47:02.394Z,28.47
2023-04-26T12:48:02.446Z,28.57
2023-04-26T12:49:02.971Z,28.62
2023-04-26T12:50:03.432Z,28.66
2023-04-26T12:51:04.819Z,28.69
2023-04-26T12:52:10.919Z,28.74
2023-04-26T12:53:02.831Z,28.79
2023-04-26T12:54:06.498Z,29.07